createdAt,value
2019-01-19T00:00:16.739Z,2.98
2019-01-19T00:03:17.154Z,2.98
2019-01-19T00:06:34.254Z,2.96
2019-01-19T00:09:17.701Z,2.91
2019-01-19T00:12:35.429Z,2.89
2019-01-19T00:15:18.320Z,2.80
2019-01-19T00:18:39.347Z,2.80
2019-01-19T00:21:36.921Z,2.58
2019-01-19T00:24:57.697Z,2.58
2019-01-19T00:27:47.193Z,2.42
2019-01-19T00:30:36.261Z,2.47
2019-01-19T00:33:55.731Z,2.42
2019-01-19T00:36:43.879Z,2.40
2019-01-19T00:39:51.880Z,2.28
2019-01-19T00:42:56.616Z,2.36
2019-01-19T00:46:12.101Z,2.53
2019-01-19T00:48:58.789Z,2.54
2019-01-19T00:52:13.662Z,2.60
2019-01-19T00:55:11.937Z,2.60
2019-01-19T00:58:26.394Z,2.65
2019-01-19T01:01:32.855Z,2.66
2019-01-19T01:04:26.632Z,2.60
2019-01-19T01:07:52.656Z,2.60
2019-01-19T01:10:32.815Z,2.53
2019-01-19T01:13:35.286Z,2.31
2019-01-19T01:16:48.206Z,2.31
2019-01-19T01:20:18.208Z,2.23
2019-01-19T01:23:12.701Z,2.44
2019-01-19T01:26:17.754Z,2.44
2019-01-19T01:29:16.222Z,2.50
2019-01-19T01:32:13.698Z,2.55
2019-01-19T01:35:21.378Z,2.55
2019-01-19T01:38:05.379Z,2.69
2019-01-19T01:41:09.359Z,2.69
2019-01-19T01:44:22.371Z,2.63
2019-01-19T01:47:42.343Z,2.63
2019-01-19T01:50:59.669Z,2.52
2019-01-19T01:54:10.334Z,2.58
2019-01-19T01:56:41.690Z,2.67
2019-01-19T01:59:36.285Z,2.67
2019-01-19T02:02:45.107Z,2.65
2019-01-19T02:06:00.884Z,2.65
2019-01-19T02:09:16.875Z,2.67
2019-01-19T02:12:39.926Z,2.60
2019-01-19T02:15:26.024Z,2.60
2019-01-19T02:18:22.052Z,2.63
2019-01-19T02:21:26.892Z,2.63
2019-01-19T02:24:38.669Z,2.75
2019-01-19T02:27:44.019Z,2.75
2019-01-19T02:30:59.178Z,2.55
2019-01-19T02:34:32.472Z,2.51
2019-01-19T02:37:50.830Z,2.39
2019-01-19T02:40:39.864Z,2.23
2019-01-19T02:43:36.710Z,2.07
2019-01-19T02:46:55.974Z,2.12
2019-01-19T02:50:04.281Z,2.39
2019-01-19T02:53:28.712Z,2.39
2019-01-19T02:56:43.504Z,2.46
2019-01-19T02:59:34.657Z,2.39
2019-01-19T03:02:32.598Z,2.47
2019-01-19T03:05:25.783Z,2.47
2019-01-19T03:08:53.425Z,2.56
2019-01-19T03:11:46.102Z,2.69
2019-01-19T03:14:41.506Z,2.79
2019-01-19T03:18:14.694Z,2.62
2019-01-19T03:21:31.799Z,2.80
2019-01-19T03:24:44.500Z,2.80
2019-01-19T03:27:52.291Z,2.80
2019-01-19T03:30:41.263Z,2.63
2019-01-19T03:33:58.391Z,2.65
2019-01-19T03:37:19.178Z,2.48
2019-01-19T03:40:14.805Z,2.48
2019-01-19T03:43:12.828Z,2.26
2019-01-19T03:46:10.279Z,2.24
2019-01-19T03:49:21.401Z,2.21
2019-01-19T03:52:21.126Z,2.26
2019-01-19T03:55:38.165Z,2.26
2019-01-19T03:58:43.571Z,2.40
2019-01-19T04:01:55.333Z,2.61
2019-01-19T04:04:36.823Z,2.80
2019-01-19T04:07:39.245Z,2.80
2019-01-19T04:10:32.495Z,2.89
2019-01-19T04:13:19.717Z,2.96
2019-01-19T04:16:29.280Z,2.97
2019-01-19T04:19:26.828Z,3.11
2019-01-19T04:22:07.051Z,3.08
2019-01-19T04:25:11.531Z,3.13
2019-01-19T04:27:42.526Z,3.15
2019-01-19T04:30:14.124Z,3.15
2019-01-19T04:32:45.475Z,3.16
2019-01-19T04:35:16.660Z,3.05
2019-01-19T04:37:47.788Z,2.93
2019-01-19T04:40:19.126Z,2.73
2019-01-19T04:42:51.335Z,2.61
2019-01-19T04:45:22.686Z,2.44
2019-01-19T04:47:53.991Z,2.44
2019-01-19T04:50:25.314Z,2.25
2019-01-19T04:52:56.669Z,2.02
2019-01-19T04:55:27.999Z,1.99
2019-01-19T04:57:59.107Z,2.04
2019-01-19T05:00:30.470Z,2.04
2019-01-19T05:03:01.682Z,1.98
2019-01-19T05:05:32.884Z,1.98
2019-01-19T05:08:04.290Z,1.99
2019-01-19T05:10:35.843Z,2.09
2019-01-19T05:13:07.134Z,2.18
2019-01-19T05:15:38.499Z,2.18
2019-01-19T05:18:11.589Z,2.06
2019-01-19T05:20:42.873Z,2.08
2019-01-19T05:23:13.927Z,2.07
2019-01-19T05:25:46.342Z,2.19
2019-01-19T05:28:17.667Z,2.16
2019-01-19T05:30:48.936Z,2.11
2019-01-19T05:33:20.296Z,2.11
2019-01-19T05:35:51.488Z,2.01
2019-01-19T05:38:22.618Z,2.01
2019-01-19T05:40:53.819Z,2.04
2019-01-19T05:43:25.145Z,2.08
2019-01-19T05:45:56.573Z,2.03
2019-01-19T05:48:27.735Z,1.92
2019-01-19T05:50:59.178Z,1.89
2019-01-19T05:53:30.498Z,1.91
2019-01-19T05:56:01.687Z,1.91
2019-01-19T05:58:33.035Z,1.84
2019-01-19T06:01:04.403Z,1.84
2019-01-19T06:03:35.539Z,1.84
2019-01-19T06:06:06.894Z,1.85
2019-01-19T06:08:38.226Z,2.01
2019-01-19T06:11:09.597Z,2.01
2019-01-19T06:13:40.775Z,2.06
2019-01-19T06:16:12.289Z,2.15
2019-01-19T06:18:44.166Z,2.24
2019-01-19T06:21:16.936Z,2.32
2019-01-19T06:23:48.278Z,2.42
2019-01-19T06:26:19.615Z,2.42
2019-01-19T06:28:50.704Z,2.48
2019-01-19T06:31:22.040Z,2.50
2019-01-19T06:33:53.752Z,2.62
2019-01-19T06:36:25.277Z,2.64
2019-01-19T06:38:56.676Z,2.64
2019-01-19T06:41:28.208Z,2.74
2019-01-19T06:43:59.530Z,2.82
2019-01-19T06:46:30.928Z,2.93
2019-01-19T06:49:02.210Z,3.13
2019-01-19T06:51:33.530Z,3.08
2019-01-19T06:54:05.395Z,3.07
2019-01-19T06:56:36.731Z,3.23
2019-01-19T06:59:07.927Z,3.52
2019-01-19T07:01:39.332Z,3.64
2019-01-19T07:04:10.674Z,3.64
2019-01-19T07:06:41.946Z,3.78
2019-01-19T07:09:13.156Z,3.82
2019-01-19T07:11:44.964Z,3.95
2019-01-19T07:14:16.212Z,3.92
2019-01-19T07:16:47.418Z,3.86
2019-01-19T07:19:18.812Z,3.88
2019-01-19T07:21:50.139Z,4.01
2019-01-19T07:24:21.460Z,4.19
2019-01-19T07:26:52.799Z,4.22
2019-01-19T07:29:24.096Z,4.29
2019-01-19T07:31:55.290Z,4.37
2019-01-19T07:34:26.733Z,4.24
2019-01-19T07:36:58.016Z,4.26
2019-01-19T07:39:29.294Z,4.25
2019-01-19T07:42:00.713Z,4.33
2019-01-19T07:44:31.914Z,4.52
2019-01-19T07:47:05.389Z,4.45
2019-01-19T07:49:36.620Z,4.56
2019-01-19T07:52:08.135Z,4.89
2019-01-19T07:54:39.416Z,5.08
2019-01-19T07:57:10.853Z,5.02
2019-01-19T07:59:42.070Z,5.23
2019-01-19T08:02:13.428Z,5.43
2019-01-19T08:04:44.779Z,5.48
2019-01-19T08:07:17.367Z,5.64
2019-01-19T08:09:49.067Z,5.76
2019-01-19T08:12:20.290Z,5.82
2019-01-19T08:14:51.676Z,5.71
2019-01-19T08:17:22.905Z,5.57
2019-01-19T08:19:54.349Z,5.48
2019-01-19T08:22:25.693Z,5.47
2019-01-19T08:24:56.783Z,5.50
2019-01-19T08:27:28.146Z,5.76
2019-01-19T08:29:59.469Z,5.82
2019-01-19T08:32:30.670Z,6.03
2019-01-19T08:35:01.933Z,6.08
2019-01-19T08:37:33.022Z,6.30
2019-01-19T08:40:04.841Z,6.30
2019-01-19T08:42:36.586Z,6.58
2019-01-19T08:45:08.384Z,6.45
2019-01-19T08:47:39.564Z,6.73
2019-01-19T08:50:10.899Z,6.98
2019-01-19T08:52:42.278Z,7.01
2019-01-19T08:55:13.653Z,7.01
2019-01-19T08:57:44.910Z,7.36
2019-01-19T09:00:16.785Z,7.36
2019-01-19T09:02:48.185Z,7.28
2019-01-19T09:05:19.515Z,7.50
2019-01-19T09:07:50.739Z,7.66
2019-01-19T09:10:21.993Z,7.95
2019-01-19T09:12:54.598Z,8.17
2019-01-19T09:15:25.999Z,8.59
2019-01-19T09:17:57.308Z,9.10
2019-01-19T09:20:28.563Z,9.79
2019-01-19T09:23:04.496Z,10.51
2019-01-19T09:25:35.754Z,10.75
2019-01-19T09:28:06.868Z,11.08
2019-01-19T09:30:38.146Z,11.52
2019-01-19T09:33:09.599Z,11.39
2019-01-19T09:35:40.814Z,11.07
2019-01-19T09:38:12.410Z,10.76
2019-01-19T09:40:43.532Z,10.98
2019-01-19T09:43:15.171Z,11.20
2019-01-19T09:45:46.431Z,11.24
2019-01-19T09:48:17.775Z,11.48
2019-01-19T09:50:49.091Z,11.84
2019-01-19T09:53:20.445Z,12.21
2019-01-19T09:55:51.711Z,12.57
2019-01-19T09:58:23.065Z,12.40
2019-01-19T10:00:55.166Z,12.49
2019-01-19T10:03:26.466Z,12.88
2019-01-19T10:05:57.825Z,13.00
2019-01-19T10:08:29.276Z,13.08
2019-01-19T10:11:00.659Z,13.94
2019-01-19T10:13:31.926Z,14.50
2019-01-19T10:16:03.304Z,14.90
2019-01-19T10:18:34.867Z,15.35
2019-01-19T10:21:06.125Z,15.29
2019-01-19T10:23:37.560Z,14.99
2019-01-19T10:26:08.876Z,14.20
2019-01-19T10:28:41.092Z,13.33
2019-01-19T10:31:12.561Z,12.79
2019-01-19T10:33:43.761Z,12.34
2019-01-19T10:36:15.054Z,11.62
2019-01-19T10:38:46.352Z,11.33
2019-01-19T10:41:17.623Z,11.09
2019-01-19T10:43:49.349Z,10.81
2019-01-19T10:46:20.456Z,10.82
2019-01-19T10:48:51.753Z,10.76
2019-01-19T10:51:22.936Z,10.69
2019-01-19T10:53:54.246Z,10.50
2019-01-19T10:56:25.665Z,10.23
2019-01-19T10:58:56.914Z,9.85
2019-01-19T11:01:28.389Z,10.25
2019-01-19T11:03:59.807Z,11.20
2019-01-19T11:06:31.033Z,11.47
2019-01-19T11:09:02.430Z,11.60
2019-01-19T11:11:36.566Z,11.32
2019-01-19T11:14:07.859Z,11.12
2019-01-19T11:16:39.144Z,11.00
2019-01-19T11:19:10.539Z,11.28
2019-01-19T11:21:41.743Z,11.03
2019-01-19T11:24:13.007Z,11.23
2019-01-19T11:26:44.398Z,11.06
2019-01-19T11:29:16.766Z,11.06
2019-01-19T11:31:48.089Z,11.34
2019-01-19T11:34:20.516Z,11.24
2019-01-19T11:36:51.795Z,11.32
2019-01-19T11:39:22.995Z,11.03
2019-01-19T11:41:54.241Z,10.97
2019-01-19T11:44:25.540Z,11.00
2019-01-19T11:46:56.890Z,11.18
2019-01-19T11:49:27.975Z,11.19
2019-01-19T11:51:59.164Z,11.38
2019-01-19T11:54:30.525Z,11.66
2019-01-19T11:57:01.733Z,11.52
2019-01-19T11:59:33.041Z,11.49
2019-01-19T12:02:04.442Z,11.22
2019-01-19T12:04:35.859Z,10.89
2019-01-19T12:07:07.084Z,11.03
2019-01-19T12:09:38.395Z,11.06
2019-01-19T12:12:09.588Z,10.98
2019-01-19T12:14:40.823Z,11.06
2019-01-19T12:17:12.131Z,11.17
2019-01-19T12:19:43.443Z,10.86
2019-01-19T12:22:14.596Z,10.84
2019-01-19T12:24:45.951Z,10.96
2019-01-19T12:27:17.296Z,10.88
2019-01-19T12:29:48.550Z,10.55
2019-01-19T12:32:19.869Z,10.14
2019-01-19T12:34:51.099Z,9.89
2019-01-19T12:37:22.526Z,9.89
2019-01-19T12:39:53.841Z,9.74
2019-01-19T12:42:25.030Z,9.63
2019-01-19T12:44:56.236Z,9.70
2019-01-19T12:47:29.049Z,9.70
2019-01-19T12:50:00.459Z,9.66
2019-01-19T12:52:31.737Z,9.85
2019-01-19T12:55:03.118Z,10.08
2019-01-19T12:57:34.227Z,10.22
2019-01-19T13:00:06.561Z,10.45
2019-01-19T13:02:37.772Z,10.61
2019-01-19T13:05:13.921Z,10.72
2019-01-19T13:07:45.095Z,10.62
2019-01-19T13:10:23.115Z,10.57
2019-01-19T13:13:18.568Z,10.56
2019-01-19T13:16:25.361Z,10.57
2019-01-19T13:19:36.440Z,10.36
2019-01-19T13:22:47.931Z,10.28
2019-01-19T13:26:06.453Z,10.23
2019-01-19T13:29:36.480Z,10.24
2019-01-19T13:32:56.627Z,10.51
2019-01-19T13:36:04.281Z,10.53
2019-01-19T13:39:23.311Z,10.53
2019-01-19T13:42:49.482Z,10.50
2019-01-19T13:46:16.343Z,10.17
2019-01-19T13:49:31.023Z,10.15
2019-01-19T13:52:20.588Z,10.03
2019-01-19T13:55:25.336Z,10.26
2019-01-19T13:58:05.145Z,10.39
2019-01-19T14:01:07.139Z,10.21
2019-01-19T14:04:03.060Z,10.22
2019-01-19T14:06:42.205Z,10.25
2019-01-19T14:09:46.253Z,10.22
2019-01-19T14:13:00.366Z,10.12
2019-01-19T14:15:55.932Z,10.11
2019-01-19T14:19:12.801Z,10.09
2019-01-19T14:22:09.939Z,10.15
2019-01-19T14:25:17.750Z,10.12
2019-01-19T14:28:29.636Z,9.99
2019-01-19T14:31:46.659Z,9.91
2019-01-19T14:34:28.037Z,9.71
2019-01-19T14:37:37.061Z,9.56
2019-01-19T14:41:07.088Z,9.42
2019-01-19T14:44:06.871Z,9.31
2019-01-19T14:46:56.980Z,9.10
2019-01-19T14:50:03.950Z,9.01
2019-01-19T14:53:12.479Z,8.90
2019-01-19T14:56:20.321Z,8.73
2019-01-19T14:59:38.205Z,8.58
2019-01-19T15:03:14.454Z,8.43
2019-01-19T15:06:22.045Z,8.29
2019-01-19T15:09:13.350Z,8.18
2019-01-19T15:12:08.748Z,8.07
2019-01-19T15:15:35.528Z,7.96
2019-01-19T15:18:31.559Z,7.96
2019-01-19T15:21:13.239Z,7.80
2019-01-19T15:24:49.543Z,7.80
2019-01-19T15:27:58.185Z,7.64
2019-01-19T15:31:01.771Z,7.34
2019-01-19T15:33:57.736Z,7.34
2019-01-19T15:37:09.126Z,7.33
2019-01-19T15:40:21.529Z,7.11
2019-01-19T15:43:45.449Z,7.04
2019-01-19T15:46:53.194Z,7.04
2019-01-19T15:49:56.803Z,7.06
2019-01-19T15:53:07.228Z,6.96
2019-01-19T15:56:28.667Z,6.94
2019-01-19T15:59:38.927Z,6.94
2019-01-19T16:02:53.224Z,6.99
2019-01-19T16:06:11.727Z,6.99
2019-01-19T16:09:36.886Z,7.00
2019-01-19T16:12:17.245Z,6.90
2019-01-19T16:15:09.920Z,6.87
2019-01-19T16:18:36.152Z,6.90
2019-01-19T16:21:44.355Z,6.89
2019-01-19T16:24:44.874Z,6.86
2019-01-19T16:27:54.015Z,6.72
2019-01-19T16:30:53.817Z,6.72
2019-01-19T16:34:15.144Z,6.60
2019-01-19T16:37:01.959Z,6.58
2019-01-19T16:40:18.868Z,6.53
2019-01-19T16:43:15.206Z,6.55
2019-01-19T16:46:31.711Z,6.52
2019-01-19T16:49:35.221Z,6.53
2019-01-19T16:52:37.377Z,6.59
2019-01-19T16:55:30.337Z,6.53
2019-01-19T16:58:57.677Z,6.58
2019-01-19T17:02:09.327Z,6.56
2019-01-19T17:05:10.305Z,6.43
2019-01-19T17:08:22.960Z,6.44
2019-01-19T17:11:37.172Z,6.39
2019-01-19T17:15:01.524Z,6.51
2019-01-19T17:18:12.648Z,6.74
2019-01-19T17:21:19.365Z,6.77
2019-01-19T17:24:30.754Z,6.79
2019-01-19T17:27:37.025Z,6.85
2019-01-19T17:30:39.744Z,6.89
2019-01-19T17:33:48.132Z,6.86
2019-01-19T17:36:53.669Z,6.79
2019-01-19T17:40:01.702Z,6.69
2019-01-19T17:43:17.932Z,6.62
2019-01-19T17:46:00.235Z,6.58
2019-01-19T17:48:53.246Z,6.50
2019-01-19T17:52:11.160Z,6.40
2019-01-19T17:55:14.715Z,6.41
2019-01-19T17:58:23.950Z,6.47
2019-01-19T18:01:30.650Z,6.48
2019-01-19T18:04:20.165Z,6.50
2019-01-19T18:07:04.606Z,6.41
2019-01-19T18:10:06.113Z,6.37
2019-01-19T18:13:33.605Z,6.39
2019-01-19T18:16:41.617Z,6.40
2019-01-19T18:19:46.136Z,6.31
2019-01-19T18:23:09.911Z,6.14
2019-01-19T18:26:04.131Z,5.93
2019-01-19T18:29:17.183Z,5.86
2019-01-19T18:32:08.793Z,5.91
2019-01-19T18:35:14.554Z,5.82
2019-01-19T18:38:28.176Z,5.90
2019-01-19T18:41:30.286Z,5.80
2019-01-19T18:44:39.396Z,5.68
2019-01-19T18:47:47.593Z,5.65
2019-01-19T18:50:43.989Z,5.61
2019-01-19T18:53:59.597Z,5.50
2019-01-19T18:57:12.358Z,5.55
2019-01-19T18:59:53.179Z,5.52
2019-01-19T19:02:51.537Z,5.43
2019-01-19T19:06:03.826Z,5.42
2019-01-19T19:09:08.713Z,5.40
2019-01-19T19:12:15.641Z,5.45
2019-01-19T19:15:10.622Z,5.45
2019-01-19T19:18:18.056Z,5.49
2019-01-19T19:21:19.982Z,5.43
2019-01-19T19:24:49.510Z,5.54
2019-01-19T19:27:31.750Z,5.60
2019-01-19T19:30:48.759Z,5.64
2019-01-19T19:34:08.941Z,5.62
2019-01-19T19:37:27.443Z,5.65
2019-01-19T19:40:30.944Z,5.67
2019-01-19T19:43:28.710Z,5.71
2019-01-19T19:46:10.743Z,5.77
2019-01-19T19:49:08.432Z,5.75
2019-01-19T19:51:56.458Z,5.77
2019-01-19T19:54:28.500Z,5.86
2019-01-19T19:56:59.839Z,5.91
2019-01-19T19:59:31.216Z,5.89
2019-01-19T20:02:02.542Z,5.87
2019-01-19T20:04:33.763Z,5.85
2019-01-19T20:07:05.514Z,5.83
2019-01-19T20:09:36.801Z,5.77
2019-01-19T20:12:09.178Z,5.84
2019-01-19T20:14:40.621Z,5.77
2019-01-19T20:17:11.964Z,5.80
2019-01-19T20:19:43.285Z,5.76
2019-01-19T20:22:14.675Z,5.77
2019-01-19T20:24:45.956Z,5.75
2019-01-19T20:27:17.339Z,5.80
2019-01-19T20:29:48.629Z,5.74
2019-01-19T20:32:19.828Z,5.72
2019-01-19T20:34:50.939Z,5.77
2019-01-19T20:37:22.312Z,5.81
2019-01-19T20:39:53.436Z,5.88
2019-01-19T20:42:24.575Z,5.86
2019-01-19T20:44:55.791Z,5.76
2019-01-19T20:47:27.193Z,5.82
2019-01-19T20:49:58.522Z,5.78
2019-01-19T20:52:29.733Z,5.74
2019-01-19T20:55:00.945Z,5.78
2019-01-19T20:57:32.123Z,5.76
2019-01-19T21:00:08.676Z,5.76
2019-01-19T21:02:40.077Z,5.80
2019-01-19T21:05:11.371Z,5.81
2019-01-19T21:07:42.660Z,5.85
2019-01-19T21:10:14.290Z,5.90
2019-01-19T21:12:46.555Z,5.93
2019-01-19T21:15:17.748Z,5.93
2019-01-19T21:17:55.627Z,5.98
2019-01-19T21:20:22.041Z,6.01
2019-01-19T21:22:53.365Z,6.03
2019-01-19T21:25:24.784Z,6.11
2019-01-19T21:27:56.090Z,6.17
2019-01-19T21:30:27.483Z,6.11
2019-01-19T21:32:58.928Z,6.08
2019-01-19T21:35:30.204Z,6.14
2019-01-19T21:38:02.763Z,6.17
2019-01-19T21:40:38.957Z,6.15
2019-01-19T21:43:07.036Z,6.21
2019-01-19T21:45:38.349Z,6.24
2019-01-19T21:48:09.552Z,6.14
2019-01-19T21:50:40.736Z,6.07
2019-01-19T21:53:11.974Z,6.10
2019-01-19T21:55:43.358Z,6.11
2019-01-19T21:58:14.869Z,5.96
2019-01-19T22:00:46.100Z,5.93
2019-01-19T22:03:17.552Z,5.88
2019-01-19T22:05:49.715Z,5.70
2019-01-19T22:08:21.163Z,5.67
2019-01-19T22:10:52.485Z,5.59
2019-01-19T22:13:23.625Z,5.52
2019-01-19T22:15:54.894Z,5.33
2019-01-19T22:18:26.256Z,5.22
2019-01-19T22:20:57.673Z,5.12
2019-01-19T22:23:29.002Z,5.08
2019-01-19T22:26:00.238Z,5.08
2019-01-19T22:28:31.571Z,5.06
2019-01-19T22:31:02.789Z,5.07
2019-01-19T22:33:34.306Z,5.12
2019-01-19T22:36:05.594Z,5.00
2019-01-19T22:38:36.759Z,5.09
2019-01-19T22:41:08.034Z,5.00
2019-01-19T22:43:39.639Z,4.92
2019-01-19T22:46:11.070Z,4.86
2019-01-19T22:48:42.511Z,4.83
2019-01-19T22:51:13.839Z,4.86
2019-01-19T22:53:45.104Z,4.86
2019-01-19T22:56:16.358Z,4.82
2019-01-19T22:58:47.565Z,4.87
2019-01-19T23:01:35.032Z,4.81
2019-01-19T23:04:06.401Z,4.88
2019-01-19T23:06:37.532Z,4.78
2019-01-19T23:09:13.663Z,4.73
2019-01-19T23:11:44.959Z,4.73
2019-01-19T23:14:16.356Z,4.68
2019-01-19T23:16:47.598Z,4.65
2019-01-19T23:19:18.835Z,4.65
2019-01-19T23:21:50.161Z,4.80
2019-01-19T23:24:21.529Z,4.87
2019-01-19T23:26:54.346Z,4.74
2019-01-19T23:29:25.483Z,4.74
2019-01-19T23:31:56.660Z,4.79
2019-01-19T23:34:28.032Z,4.77
2019-01-19T23:36:59.430Z,4.81
2019-01-19T23:39:30.580Z,4.80
2019-01-19T23:42:01.955Z,4.81
2019-01-19T23:44:33.311Z,4.78
2019-01-19T23:47:04.778Z,4.79
2019-01-19T23:49:36.219Z,4.73
2019-01-19T23:52:07.556Z,4.64
2019-01-19T23:54:38.818Z,4.51
2019-01-19T23:57:09.939Z,4.49
2019-01-19T23:59:41.182Z,4.52
